sensor_id;sensor_type;location;lat;lon;timestamp;temperature;humidity
43015;DHT22;28637;50.554;7.032;2024-02-16T00:01:19;13.30;99.90
43015;DHT22;28637;50.554;7.032;2024-02-16T00:06:20;13.30;99.90
43015;DHT22;28637;50.554;7.032;2024-02-16T00:11:21;13.30;99.90
43015;DHT22;28637;50.554;7.032;2024-02-16T00:16:22;13.40;99.90
43015;DHT22;28637;50.554;7.032;2024-02-16T00:21:22;13.50;99.90
43015;DHT22;28637;50.554;7.032;2024-02-16T00:26:23;13.50;99.90
43015;DHT22;28637;50.554;7.032;2024-02-16T00:31:24;13.50;99.90
43015;DHT22;28637;50.554;7.032;2024-02-16T00:36:26;13.50;99.90
43015;DHT22;28637;50.554;7.032;2024-02-16T00:41:27;13.60;99.90
43015;DHT22;28637;50.554;7.032;2024-02-16T00:46:28;13.60;99.90
43015;DHT22;28637;50.554;7.032;2024-02-16T00:51:29;13.60;99.90
43015;DHT22;28637;50.554;7.032;2024-02-16T00:56:30;13.60;99.90
43015;DHT22;28637;50.554;7.032;2024-02-16T01:01:31;13.60;99.90
43015;DHT22;28637;50.554;7.032;2024-02-16T01:06:33;13.70;99.90
43015;DHT22;28637;50.554;7.032;2024-02-16T01:11:33;13.70;99.90
43015;DHT22;28637;50.554;7.032;2024-02-16T01:16:35;13.70;99.90
43015;DHT22;28637;50.554;7.032;2024-02-16T01:21:36;13.70;99.90
43015;DHT22;28637;50.554;7.032;2024-02-16T01:26:36;13.70;99.90
43015;DHT22;28637;50.554;7.032;2024-02-16T01:31:38;13.70;99.90
43015;DHT22;28637;50.554;7.032;2024-02-16T01:36:39;13.70;99.90
43015;DHT22;28637;50.554;7.032;2024-02-16T01:41:39;13.70;99.90
43015;DHT22;28637;50.554;7.032;2024-02-16T01:46:40;13.70;99.90
43015;DHT22;28637;50.554;7.032;2024-02-16T01:51:41;13.70;99.90
43015;DHT22;28637;50.554;7.032;2024-02-16T01:56:42;13.60;99.90
43015;DHT22;28637;50.554;7.032;2024-02-16T02:01:43;13.60;99.90
43015;DHT22;28637;50.554;7.032;2024-02-16T02:06:44;13.50;99.90
43015;DHT22;28637;50.554;7.032;2024-02-16T02:11:44;13.40;99.90
43015;DHT22;28637;50.554;7.032;2024-02-16T02:16:45;13.40;99.90
43015;DHT22;28637;50.554;7.032;2024-02-16T02:21:46;13.30;99.90
43015;DHT22;28637;50.554;7.032;2024-02-16T02:26:46;13.20;99.90
43015;DHT22;28637;50.554;7.032;2024-02-16T02:31:47;13.00;99.90
43015;DHT22;28637;50.554;7.032;2024-02-16T02:36:48;12.90;99.90
43015;DHT22;28637;50.554;7.032;2024-02-16T02:41:49;12.80;99.90
43015;DHT22;28637;50.554;7.032;2024-02-16T02:46:50;12.80;99.90
43015;DHT22;28637;50.554;7.032;2024-02-16T02:51:50;12.70;99.90
43015;DHT22;28637;50.554;7.032;2024-02-16T02:56:51;12.70;99.90
43015;DHT22;28637;50.554;7.032;2024-02-16T03:01:52;12.70;99.90
43015;DHT22;28637;50.554;7.032;2024-02-16T03:06:52;12.60;99.90
43015;DHT22;28637;50.554;7.032;2024-02-16T03:11:53;12.60;99.90
43015;DHT22;28637;50.554;7.032;2024-02-16T03:16:54;12.60;99.90
43015;DHT22;28637;50.554;7.032;2024-02-16T03:21:55;12.60;99.90
43015;DHT22;28637;50.554;7.032;2024-02-16T03:26:55;12.60;99.90
43015;DHT22;28637;50.554;7.032;2024-02-16T03:31:56;12.50;99.90
43015;DHT22;28637;50.554;7.032;2024-02-16T03:36:57;12.40;99.90
43015;DHT22;28637;50.554;7.032;2024-02-16T03:41:59;12.20;99.90
43015;DHT22;28637;50.554;7.032;2024-02-16T03:47:00;12.10;99.90
43015;DHT22;28637;50.554;7.032;2024-02-16T03:52:00;12.20;99.90
43015;DHT22;28637;50.554;7.032;2024-02-16T03:57:01;12.10;99.90
43015;DHT22;28637;50.554;7.032;2024-02-16T04:02:04;12.00;99.90
43015;DHT22;28637;50.554;7.032;2024-02-16T04:07:05;11.90;99.90
43015;DHT22;28637;50.554;7.032;2024-02-16T04:12:09;11.90;99.90
43015;DHT22;28637;50.554;7.032;2024-02-16T04:17:10;11.80;99.90
43015;DHT22;28637;50.554;7.032;2024-02-16T04:22:11;11.70;99.90
43015;DHT22;28637;50.554;7.032;2024-02-16T04:27:12;11.70;99.90
43015;DHT22;28637;50.554;7.032;2024-02-16T04:32:12;11.60;99.90
43015;DHT22;28637;50.554;7.032;2024-02-16T04:37:13;11.60;99.90
43015;DHT22;28637;50.554;7.032;2024-02-16T04:42:14;11.60;99.90
43015;DHT22;28637;50.554;7.032;2024-02-16T04:47:14;11.50;99.90
43015;DHT22;28637;50.554;7.032;2024-02-16T04:52:15;11.60;99.90
43015;DHT22;28637;50.554;7.032;2024-02-16T04:57:16;11.60;99.90
43015;DHT22;28637;50.554;7.032;2024-02-16T05:02:16;11.60;99.90
43015;DHT22;28637;50.554;7.032;2024-02-16T05:07:17;11.50;99.90
43015;DHT22;28637;50.554;7.032;2024-02-16T05:12:18;11.50;99.90
43015;DHT22;28637;50.554;7.032;2024-02-16T05:17:20;11.50;99.90
43015;DHT22;28637;50.554;7.032;2024-02-16T05:22:22;11.60;99.90
43015;DHT22;28637;50.554;7.032;2024-02-16T05:27:23;11.70;99.90
43015;DHT22;28637;50.554;7.032;2024-02-16T05:32:24;11.60;99.90
43015;DHT22;28637;50.554;7.032;2024-02-16T05:37:25;11.60;99.90
43015;DHT22;28637;50.554;7.032;2024-02-16T05:42:26;11.60;99.90
43015;DHT22;28637;50.554;7.032;2024-02-16T05:47:28;11.60;99.90
43015;DHT22;28637;50.554;7.032;2024-02-16T05:52:28;11.60;99.90
43015;DHT22;28637;50.554;7.032;2024-02-16T05:57:30;11.60;99.90
43015;DHT22;28637;50.554;7.032;2024-02-16T06:02:32;11.60;99.90
43015;DHT22;28637;50.554;7.032;2024-02-16T06:07:35;11.60;99.90
43015;DHT22;28637;50.554;7.032;2024-02-16T06:12:38;11.50;99.90
43015;DHT22;28637;50.554;7.032;2024-02-16T06:17:39;11.50;99.90
43015;DHT22;28637;50.554;7.032;2024-02-16T06:22:41;11.40;99.90
43015;DHT22;28637;50.554;7.032;2024-02-16T06:27:42;11.40;99.90
43015;DHT22;28637;50.554;7.032;2024-02-16T06:32:43;11.40;99.90
43015;DHT22;28637;50.554;7.032;2024-02-16T06:37:43;11.60;99.90
43015;DHT22;28637;50.554;7.032;2024-02-16T06:42:44;11.90;99.90
43015;DHT22;28637;50.554;7.032;2024-02-16T06:47:44;12.10;99.90
43015;DHT22;28637;50.554;7.032;2024-02-16T06:52:45;12.30;99.90
43015;DHT22;28637;50.554;7.032;2024-02-16T06:57:46;12.40;99.90
43015;DHT22;28637;50.554;7.032;2024-02-16T07:02:47;12.60;99.90
43015;DHT22;28637;50.554;7.032;2024-02-16T07:07:47;12.60;99.90
43015;DHT22;28637;50.554;7.032;2024-02-16T07:12:49;12.70;99.90
43015;DHT22;28637;50.554;7.032;2024-02-16T07:17:50;12.80;99.90
43015;DHT22;28637;50.554;7.032;2024-02-16T07:22:50;12.70;99.90
43015;DHT22;28637;50.554;7.032;2024-02-16T07:27:52;12.80;99.90
43015;DHT22;28637;50.554;7.032;2024-02-16T07:32:53;12.80;99.90
43015;DHT22;28637;50.554;7.032;2024-02-16T07:37:54;12.80;99.90
43015;DHT22;28637;50.554;7.032;2024-02-16T07:42:55;12.80;99.90
43015;DHT22;28637;50.554;7.032;2024-02-16T07:47:56;12.80;99.90
43015;DHT22;28637;50.554;7.032;2024-02-16T07:52:57;12.90;99.90
43015;DHT22;28637;50.554;7.032;2024-02-16T07:57:58;12.90;99.90
43015;DHT22;28637;50.554;7.032;2024-02-16T08:02:59;13.00;99.90
43015;DHT22;28637;50.554;7.032;2024-02-16T08:08:00;13.00;99.90
43015;DHT22;28637;50.554;7.032;2024-02-16T08:13:01;13.00;99.90
43015;DHT22;28637;50.554;7.032;2024-02-16T08:18:01;13.10;99.90
43015;DHT22;28637;50.554;7.032;2024-02-16T08:23:03;13.10;99.90
43015;DHT22;28637;50.554;7.032;2024-02-16T08:28:04;13.20;99.90
43015;DHT22;28637;50.554;7.032;2024-02-16T08:33:05;13.20;99.90
43015;DHT22;28637;50.554;7.032;2024-02-16T08:38:06;13.20;99.90
43015;DHT22;28637;50.554;7.032;2024-02-16T08:43:11;13.20;99.90
43015;DHT22;28637;50.554;7.032;2024-02-16T08:48:11;13.20;99.90
43015;DHT22;28637;50.554;7.032;2024-02-16T08:53:12;13.30;99.90
43015;DHT22;28637;50.554;7.032;2024-02-16T08:58:14;13.20;99.90
43015;DHT22;28637;50.554;7.032;2024-02-16T09:03:15;13.20;99.90
43015;DHT22;28637;50.554;7.032;2024-02-16T09:08:16;13.20;99.90
43015;DHT22;28637;50.554;7.032;2024-02-16T09:13:17;13.20;99.90
43015;DHT22;28637;50.554;7.032;2024-02-16T09:18:19;13.20;99.90
43015;DHT22;28637;50.554;7.032;2024-02-16T09:23:19;13.20;99.90
43015;DHT22;28637;50.554;7.032;2024-02-16T09:28:20;13.30;99.90
43015;DHT22;28637;50.554;7.032;2024-02-16T09:33:21;13.30;99.90
43015;DHT22;28637;50.554;7.032;2024-02-16T09:38:22;13.40;99.90
43015;DHT22;28637;50.554;7.032;2024-02-16T09:43:28;13.40;99.90
43015;DHT22;28637;50.554;7.032;2024-02-16T09:48:29;13.40;99.90
43015;DHT22;28637;50.554;7.032;2024-02-16T09:53:30;13.40;99.90
43015;DHT22;28637;50.554;7.032;2024-02-16T09:58:30;13.30;99.90
43015;DHT22;28637;50.554;7.032;2024-02-16T10:03:31;13.40;99.90
43015;DHT22;28637;50.554;7.032;2024-02-16T10:08:46;13.40;99.90
43015;DHT22;28637;50.554;7.032;2024-02-16T10:14:02;13.30;99.90
43015;DHT22;28637;50.554;7.032;2024-02-16T10:19:07;13.30;99.90
43015;DHT22;28637;50.554;7.032;2024-02-16T10:24:12;13.30;99.90
43015;DHT22;28637;50.554;7.032;2024-02-16T10:29:18;13.30;99.90
43015;DHT22;28637;50.554;7.032;2024-02-16T10:34:21;13.20;99.90
43015;DHT22;28637;50.554;7.032;2024-02-16T10:39:24;13.20;99.90
43015;DHT22;28637;50.554;7.032;2024-02-16T10:44:27;13.30;99.90
43015;DHT22;28637;50.554;7.032;2024-02-16T10:49:28;13.20;99.90
43015;DHT22;28637;50.554;7.032;2024-02-16T10:54:32;13.20;99.90
43015;DHT22;28637;50.554;7.032;2024-02-16T10:59:44;13.20;99.90
43015;DHT22;28637;50.554;7.032;2024-02-16T11:04:46;13.30;99.90
43015;DHT22;28637;50.554;7.032;2024-02-16T11:09:47;13.10;99.90
43015;DHT22;28637;50.554;7.032;2024-02-16T11:14:49;13.10;99.90
43015;DHT22;28637;50.554;7.032;2024-02-16T11:19:54;13.20;99.90
43015;DHT22;28637;50.554;7.032;2024-02-16T11:24:55;13.30;99.90
43015;DHT22;28637;50.554;7.032;2024-02-16T11:29:58;13.40;99.90
43015;DHT22;28637;50.554;7.032;2024-02-16T11:35:07;13.50;99.90
43015;DHT22;28637;50.554;7.032;2024-02-16T11:40:11;13.50;99.90
43015;DHT22;28637;50.554;7.032;2024-02-16T11:45:13;13.60;99.90
43015;DHT22;28637;50.554;7.032;2024-02-16T11:50:13;13.70;99.90
43015;DHT22;28637;50.554;7.032;2024-02-16T11:55:16;13.70;99.90
43015;DHT22;28637;50.554;7.032;2024-02-16T12:00:17;13.70;99.90
43015;DHT22;28637;50.554;7.032;2024-02-16T12:05:17;13.80;99.90
43015;DHT22;28637;50.554;7.032;2024-02-16T12:10:18;13.80;99.90
43015;DHT22;28637;50.554;7.032;2024-02-16T12:15:19;13.80;99.90
43015;DHT22;28637;50.554;7.032;2024-02-16T12:20:20;13.90;99.90
43015;DHT22;28637;50.554;7.032;2024-02-16T12:25:21;14.00;99.90
43015;DHT22;28637;50.554;7.032;2024-02-16T12:30:22;14.00;99.90
43015;DHT22;28637;50.554;7.032;2024-02-16T12:35:22;14.00;99.90
43015;DHT22;28637;50.554;7.032;2024-02-16T12:40:23;14.00;99.90
43015;DHT22;28637;50.554;7.032;2024-02-16T12:45:24;14.00;99.90
43015;DHT22;28637;50.554;7.032;2024-02-16T12:50:24;14.10;99.90
43015;DHT22;28637;50.554;7.032;2024-02-16T12:55:25;14.10;99.90
43015;DHT22;28637;50.554;7.032;2024-02-16T13:00:26;14.10;99.90
43015;DHT22;28637;50.554;7.032;2024-02-16T13:05:26;14.00;99.90
43015;DHT22;28637;50.554;7.032;2024-02-16T13:10:28;14.00;99.90
43015;DHT22;28637;50.554;7.032;2024-02-16T13:15:28;13.90;99.90
43015;DHT22;28637;50.554;7.032;2024-02-16T13:20:29;13.80;99.90
43015;DHT22;28637;50.554;7.032;2024-02-16T13:25:31;13.70;99.90
43015;DHT22;28637;50.554;7.032;2024-02-16T13:30:31;13.80;99.90
43015;DHT22;28637;50.554;7.032;2024-02-16T13:35:32;13.70;99.90
43015;DHT22;28637;50.554;7.032;2024-02-16T13:40:34;13.70;99.90
43015;DHT22;28637;50.554;7.032;2024-02-16T13:45:56;13.60;99.90
43015;DHT22;28637;50.554;7.032;2024-02-16T13:50:59;13.50;99.90
43015;DHT22;28637;50.554;7.032;2024-02-16T13:56:00;13.50;99.90
43015;DHT22;28637;50.554;7.032;2024-02-16T14:01:04;13.50;99.90
43015;DHT22;28637;50.554;7.032;2024-02-16T14:06:07;13.50;99.90
43015;DHT22;28637;50.554;7.032;2024-02-16T14:11:10;13.50;99.90
43015;DHT22;28637;50.554;7.032;2024-02-16T14:16:11;13.50;99.90
43015;DHT22;28637;50.554;7.032;2024-02-16T14:21:12;13.50;99.90
43015;DHT22;28637;50.554;7.032;2024-02-16T14:26:12;13.50;99.90
43015;DHT22;28637;50.554;7.032;2024-02-16T14:31:13;13.50;99.90
43015;DHT22;28637;50.554;7.032;2024-02-16T14:36:16;13.50;99.90
43015;DHT22;28637;50.554;7.032;2024-02-16T14:41:17;13.50;99.90
43015;DHT22;28637;50.554;7.032;2024-02-16T14:46:17;13.50;99.90
43015;DHT22;28637;50.554;7.032;2024-02-16T14:51:18;13.60;99.90
43015;DHT22;28637;50.554;7.032;2024-02-16T14:56:19;13.50;99.90
43015;DHT22;28637;50.554;7.032;2024-02-16T15:01:26;13.50;99.90
43015;DHT22;28637;50.554;7.032;2024-02-16T15:06:27;13.50;99.90
43015;DHT22;28637;50.554;7.032;2024-02-16T15:11:28;13.60;99.90
43015;DHT22;28637;50.554;7.032;2024-02-16T15:16:28;13.50;99.90
43015;DHT22;28637;50.554;7.032;2024-02-16T15:21:29;13.50;99.90
43015;DHT22;28637;50.554;7.032;2024-02-16T15:26:30;13.50;99.90
43015;DHT22;28637;50.554;7.032;2024-02-16T15:31:30;13.50;99.90
43015;DHT22;28637;50.554;7.032;2024-02-16T15:36:31;13.50;99.90
43015;DHT22;28637;50.554;7.032;2024-02-16T15:41:32;13.40;99.90
43015;DHT22;28637;50.554;7.032;2024-02-16T15:46:33;13.60;99.90
43015;DHT22;28637;50.554;7.032;2024-02-16T15:51:34;13.50;99.90
43015;DHT22;28637;50.554;7.032;2024-02-16T15:56:35;13.50;99.90
43015;DHT22;28637;50.554;7.032;2024-02-16T16:01:36;13.40;99.90
43015;DHT22;28637;50.554;7.032;2024-02-16T16:06:37;13.40;99.90
43015;DHT22;28637;50.554;7.032;2024-02-16T16:11:37;13.30;99.90
43015;DHT22;28637;50.554;7.032;2024-02-16T16:16:39;13.30;99.90
43015;DHT22;28637;50.554;7.032;2024-02-16T16:21:39;13.30;99.90
43015;DHT22;28637;50.554;7.032;2024-02-16T16:26:40;13.20;99.90
43015;DHT22;28637;50.554;7.032;2024-02-16T16:31:43;13.20;99.90
43015;DHT22;28637;50.554;7.032;2024-02-16T16:36:44;13.20;99.90
43015;DHT22;28637;50.554;7.032;2024-02-16T16:41:44;13.10;99.90
43015;DHT22;28637;50.554;7.032;2024-02-16T16:46:46;13.00;99.90
43015;DHT22;28637;50.554;7.032;2024-02-16T16:51:46;12.90;99.90
43015;DHT22;28637;50.554;7.032;2024-02-16T16:56:47;12.90;99.90
43015;DHT22;28637;50.554;7.032;2024-02-16T17:01:48;12.90;99.90
43015;DHT22;28637;50.554;7.032;2024-02-16T17:06:49;12.90;99.90
43015;DHT22;28637;50.554;7.032;2024-02-16T17:11:50;12.90;99.90
43015;DHT22;28637;50.554;7.032;2024-02-16T17:16:51;12.80;99.90
43015;DHT22;28637;50.554;7.032;2024-02-16T17:21:51;12.80;99.90
43015;DHT22;28637;50.554;7.032;2024-02-16T17:26:52;13.00;99.90
43015;DHT22;28637;50.554;7.032;2024-02-16T17:31:53;13.00;99.90
43015;DHT22;28637;50.554;7.032;2024-02-16T17:36:53;13.00;99.90
43015;DHT22;28637;50.554;7.032;2024-02-16T17:41:56;13.00;99.90
43015;DHT22;28637;50.554;7.032;2024-02-16T17:46:56;13.00;99.90
43015;DHT22;28637;50.554;7.032;2024-02-16T17:51:57;12.90;99.90
43015;DHT22;28637;50.554;7.032;2024-02-16T17:56:58;12.90;99.90
43015;DHT22;28637;50.554;7.032;2024-02-16T18:02:01;12.70;99.90
43015;DHT22;28637;50.554;7.032;2024-02-16T18:07:03;12.50;99.90
43015;DHT22;28637;50.554;7.032;2024-02-16T18:12:04;12.30;99.90
43015;DHT22;28637;50.554;7.032;2024-02-16T18:17:06;12.20;99.90
43015;DHT22;28637;50.554;7.032;2024-02-16T18:22:08;12.10;99.90
43015;DHT22;28637;50.554;7.032;2024-02-16T18:27:09;12.40;99.90
43015;DHT22;28637;50.554;7.032;2024-02-16T18:32:10;12.70;99.90
43015;DHT22;28637;50.554;7.032;2024-02-16T18:37:12;12.80;99.90
43015;DHT22;28637;50.554;7.032;2024-02-16T18:42:12;12.60;99.90
43015;DHT22;28637;50.554;7.032;2024-02-16T18:47:13;12.30;99.90
43015;DHT22;28637;50.554;7.032;2024-02-16T18:52:15;12.30;99.90
43015;DHT22;28637;50.554;7.032;2024-02-16T18:57:16;12.20;99.90
43015;DHT22;28637;50.554;7.032;2024-02-16T19:02:17;12.10;99.90
43015;DHT22;28637;50.554;7.032;2024-02-16T19:07:18;12.20;99.90
43015;DHT22;28637;50.554;7.032;2024-02-16T19:12:19;12.10;99.90
43015;DHT22;28637;50.554;7.032;2024-02-16T19:17:20;12.10;99.90
43015;DHT22;28637;50.554;7.032;2024-02-16T19:22:21;12.00;99.90
43015;DHT22;28637;50.554;7.032;2024-02-16T19:27:21;12.00;99.90
43015;DHT22;28637;50.554;7.032;2024-02-16T19:32:23;12.00;99.90
43015;DHT22;28637;50.554;7.032;2024-02-16T19:37:23;11.90;99.90
43015;DHT22;28637;50.554;7.032;2024-02-16T19:42:24;12.00;99.90
43015;DHT22;28637;50.554;7.032;2024-02-16T19:47:25;12.00;99.90
43015;DHT22;28637;50.554;7.032;2024-02-16T19:52:25;12.20;99.90
43015;DHT22;28637;50.554;7.032;2024-02-16T19:57:26;12.20;99.90
43015;DHT22;28637;50.554;7.032;2024-02-16T20:02:27;12.20;99.90
43015;DHT22;28637;50.554;7.032;2024-02-16T20:07:33;12.10;99.90
43015;DHT22;28637;50.554;7.032;2024-02-16T20:12:34;12.00;99.90
43015;DHT22;28637;50.554;7.032;2024-02-16T20:17:38;11.90;99.90
43015;DHT22;28637;50.554;7.032;2024-02-16T20:22:39;11.90;99.90
43015;DHT22;28637;50.554;7.032;2024-02-16T20:27:42;11.80;99.90
43015;DHT22;28637;50.554;7.032;2024-02-16T20:32:43;11.80;99.90
43015;DHT22;28637;50.554;7.032;2024-02-16T20:37:45;11.90;99.90
43015;DHT22;28637;50.554;7.032;2024-02-16T20:42:46;11.80;99.90
43015;DHT22;28637;50.554;7.032;2024-02-16T20:47:46;11.80;99.90
43015;DHT22;28637;50.554;7.032;2024-02-16T20:52:47;11.70;99.90
43015;DHT22;28637;50.554;7.032;2024-02-16T20:57:49;11.70;99.90
43015;DHT22;28637;50.554;7.032;2024-02-16T21:02:50;11.60;99.90
43015;DHT22;28637;50.554;7.032;2024-02-16T21:07:54;11.50;99.90
43015;DHT22;28637;50.554;7.032;2024-02-16T21:12:57;11.50;99.90
43015;DHT22;28637;50.554;7.032;2024-02-16T21:17:57;11.40;99.90
43015;DHT22;28637;50.554;7.032;2024-02-16T21:22:58;11.40;99.90
43015;DHT22;28637;50.554;7.032;2024-02-16T21:27:59;11.40;99.90
43015;DHT22;28637;50.554;7.032;2024-02-16T21:33:01;11.40;99.90
43015;DHT22;28637;50.554;7.032;2024-02-16T21:38:04;11.40;99.90
43015;DHT22;28637;50.554;7.032;2024-02-16T21:43:05;11.40;99.90
43015;DHT22;28637;50.554;7.032;2024-02-16T21:48:06;11.40;99.90
43015;DHT22;28637;50.554;7.032;2024-02-16T21:53:07;11.40;99.90
43015;DHT22;28637;50.554;7.032;2024-02-16T21:58:08;11.40;99.90
43015;DHT22;28637;50.554;7.032;2024-02-16T22:03:16;11.40;99.90
43015;DHT22;28637;50.554;7.032;2024-02-16T22:08:17;11.30;99.90
43015;DHT22;28637;50.554;7.032;2024-02-16T22:13:17;11.30;99.90
43015;DHT22;28637;50.554;7.032;2024-02-16T22:18:18;11.20;99.90
43015;DHT22;28637;50.554;7.032;2024-02-16T22:23:19;11.20;99.90
43015;DHT22;28637;50.554;7.032;2024-02-16T22:28:19;11.10;99.90
43015;DHT22;28637;50.554;7.032;2024-02-16T22:33:20;11.00;99.90
43015;DHT22;28637;50.554;7.032;2024-02-16T22:38:21;10.90;99.90
43015;DHT22;28637;50.554;7.032;2024-02-16T22:43:22;10.90;99.90
43015;DHT22;28637;50.554;7.032;2024-02-16T22:48:23;10.90;99.90
43015;DHT22;28637;50.554;7.032;2024-02-16T22:53:24;11.00;99.90
43015;DHT22;28637;50.554;7.032;2024-02-16T22:58:25;11.00;99.90
43015;DHT22;28637;50.554;7.032;2024-02-16T23:03:26;11.00;99.90
43015;DHT22;28637;50.554;7.032;2024-02-16T23:08:27;11.00;99.90
43015;DHT22;28637;50.554;7.032;2024-02-16T23:13:30;11.00;99.90
43015;DHT22;28637;50.554;7.032;2024-02-16T23:18:30;11.10;99.90
43015;DHT22;28637;50.554;7.032;2024-02-16T23:23:32;11.10;99.90
43015;DHT22;28637;50.554;7.032;2024-02-16T23:28:32;11.10;99.90
43015;DHT22;28637;50.554;7.032;2024-02-16T23:33:33;11.10;99.90
43015;DHT22;28637;50.554;7.032;2024-02-16T23:38:34;11.10;99.90
43015;DHT22;28637;50.554;7.032;2024-02-16T23:43:35;11.10;99.90
43015;DHT22;28637;50.554;7.032;2024-02-16T23:48:38;11.20;99.90
43015;DHT22;28637;50.554;7.032;2024-02-16T23:53:38;11.20;99.90
43015;DHT22;28637;50.554;7.032;2024-02-16T23:58:40;11.10;99.90
